createdAt,value
2018-06-30T00:00:46.653Z,24.40
2018-06-30T00:03:15.302Z,24.40
2018-06-30T00:05:43.572Z,24.40
2018-06-30T00:08:11.872Z,24.40
2018-06-30T00:10:40.165Z,24.40
2018-06-30T00:13:08.442Z,24.40
2018-06-30T00:15:36.675Z,24.30
2018-06-30T00:18:05.011Z,24.20
2018-06-30T00:20:33.279Z,24.10
2018-06-30T00:23:01.550Z,24.10
2018-06-30T00:25:29.903Z,24.10
2018-06-30T00:27:58.154Z,24.10
2018-06-30T00:30:26.819Z,24.10
2018-06-30T00:32:56.159Z,24.10
2018-06-30T00:35:24.421Z,24.00
2018-06-30T00:37:52.670Z,23.90
2018-06-30T00:40:20.869Z,23.80
2018-06-30T00:42:49.127Z,23.80
2018-06-30T00:45:17.718Z,23.80
2018-06-30T00:47:45.951Z,23.80
2018-06-30T00:50:14.153Z,23.80
2018-06-30T00:52:42.369Z,23.80
2018-06-30T00:55:10.690Z,23.80
2018-06-30T01:00:06.893Z,23.80
2018-06-30T01:02:35.118Z,23.70
2018-06-30T01:05:03.398Z,23.70
2018-06-30T01:07:31.714Z,23.70
2018-06-30T01:09:59.942Z,23.60
2018-06-30T01:12:28.189Z,23.60
2018-06-30T01:14:57.350Z,23.60
2018-06-30T01:17:25.595Z,23.60
2018-06-30T01:19:53.825Z,23.60
2018-06-30T01:22:22.060Z,23.60
2018-06-30T01:27:18.234Z,23.50
2018-06-30T01:29:46.606Z,23.40
2018-06-30T01:32:14.841Z,23.30
2018-06-30T01:34:43.053Z,23.20
2018-06-30T01:37:15.685Z,23.10
2018-06-30T01:39:50.518Z,23.10
2018-06-30T01:42:21.921Z,23.10
2018-06-30T01:44:50.195Z,23.10
2018-06-30T01:47:18.434Z,23.00
2018-06-30T01:49:46.654Z,23.10
2018-06-30T01:52:14.885Z,23.00
2018-06-30T01:54:43.090Z,23.00
2018-06-30T01:57:11.475Z,23.00
2018-06-30T01:59:39.686Z,23.00
2018-06-30T02:02:07.957Z,22.90
2018-06-30T02:04:36.377Z,22.90
2018-06-30T02:07:04.948Z,22.80
2018-06-30T02:09:33.202Z,22.80
2018-06-30T02:12:01.435Z,22.80
2018-06-30T02:14:29.659Z,22.70
2018-06-30T02:16:57.885Z,22.70
2018-06-30T02:19:26.151Z,22.70
2018-06-30T02:21:54.410Z,22.70
2018-06-30T02:24:22.761Z,22.70
2018-06-30T02:26:50.995Z,22.80
2018-06-30T02:29:19.297Z,22.80
2018-06-30T02:31:47.533Z,22.70
2018-06-30T02:34:15.739Z,22.70
2018-06-30T02:36:44.086Z,22.70
2018-06-30T02:39:12.364Z,22.60
2018-06-30T02:41:40.497Z,22.50
2018-06-30T02:44:08.750Z,22.50
2018-06-30T02:46:37.424Z,22.50
2018-06-30T02:49:05.804Z,22.40
2018-06-30T02:51:34.114Z,22.40
2018-06-30T02:54:02.313Z,22.40
2018-06-30T02:56:30.924Z,22.40
2018-06-30T02:58:59.130Z,22.30
2018-06-30T03:01:34.110Z,22.30
2018-06-30T03:04:02.350Z,22.20
2018-06-30T03:06:30.561Z,22.10
2018-06-30T03:08:59.179Z,22.10
2018-06-30T03:11:27.414Z,22.10
2018-06-30T03:13:56.470Z,22.10
2018-06-30T03:16:24.768Z,22.00
2018-06-30T03:18:52.983Z,22.00
2018-06-30T03:21:21.352Z,21.90
2018-06-30T03:23:49.595Z,21.90
2018-06-30T03:26:17.822Z,21.90
2018-06-30T03:28:46.065Z,21.90
2018-06-30T03:31:14.303Z,21.80
2018-06-30T03:33:42.534Z,21.70
2018-06-30T03:36:10.767Z,21.70
2018-06-30T03:38:38.968Z,21.80
2018-06-30T03:41:07.204Z,21.80
2018-06-30T03:43:35.386Z,21.80
2018-06-30T03:46:03.653Z,21.70
2018-06-30T03:48:31.891Z,21.60
2018-06-30T03:51:00.123Z,21.60
2018-06-30T03:53:28.301Z,21.60
2018-06-30T03:55:56.581Z,21.60
2018-06-30T04:00:52.835Z,21.60
2018-06-30T04:03:21.074Z,21.70
2018-06-30T04:05:49.372Z,21.80
2018-06-30T04:08:17.610Z,21.80
2018-06-30T04:10:45.850Z,21.80
2018-06-30T04:13:14.074Z,21.80
2018-06-30T04:15:42.316Z,21.80
2018-06-30T04:18:10.516Z,21.80
2018-06-30T04:20:38.789Z,21.80
2018-06-30T04:23:07.091Z,21.80
2018-06-30T04:25:35.359Z,21.90
2018-06-30T04:28:03.559Z,21.90
2018-06-30T04:30:31.790Z,22.00
2018-06-30T04:33:00.071Z,21.80
2018-06-30T04:35:28.319Z,21.80
2018-06-30T04:37:56.516Z,21.80
2018-06-30T04:40:24.762Z,21.70
2018-06-30T04:42:53.015Z,21.80
2018-06-30T04:45:21.217Z,21.90
2018-06-30T04:47:49.506Z,22.20
2018-06-30T04:50:17.778Z,22.20
2018-06-30T04:52:46.842Z,22.20
2018-06-30T04:55:15.082Z,22.10
2018-06-30T04:57:43.351Z,22.10
2018-06-30T05:00:11.544Z,22.20
2018-06-30T05:02:39.783Z,22.40
2018-06-30T05:05:08.064Z,22.40
2018-06-30T05:07:36.342Z,22.50
2018-06-30T05:10:04.659Z,22.50
2018-06-30T05:12:32.910Z,22.50
2018-06-30T05:15:01.135Z,22.50
2018-06-30T05:17:29.458Z,22.60
2018-06-30T05:19:57.629Z,22.50
2018-06-30T05:22:25.841Z,22.70
2018-06-30T05:24:54.112Z,23.10
2018-06-30T05:27:22.342Z,23.30
2018-06-30T05:29:50.572Z,23.40
2018-06-30T05:32:18.847Z,23.50
2018-06-30T05:34:47.159Z,23.50
2018-06-30T05:37:15.478Z,23.50
2018-06-30T05:39:43.856Z,23.40
2018-06-30T05:42:12.258Z,23.40
2018-06-30T05:44:40.510Z,23.40
2018-06-30T05:47:08.733Z,23.40
2018-06-30T05:49:36.956Z,23.40
2018-06-30T05:52:05.285Z,23.50
2018-06-30T05:54:33.889Z,23.60
2018-06-30T05:57:02.369Z,23.70
2018-06-30T05:59:30.626Z,23.60
2018-06-30T06:01:58.869Z,23.70
2018-06-30T06:04:27.087Z,23.60
2018-06-30T06:06:55.356Z,23.60
2018-06-30T06:09:23.615Z,23.60
2018-06-30T06:11:51.957Z,23.70
2018-06-30T06:14:20.422Z,23.70
2018-06-30T06:16:48.841Z,23.70
2018-06-30T06:19:17.144Z,23.70
2018-06-30T06:21:45.378Z,23.70
2018-06-30T06:24:13.580Z,23.80
2018-06-30T06:26:41.822Z,23.80
2018-06-30T06:29:10.203Z,23.80
2018-06-30T06:31:38.452Z,23.90
2018-06-30T06:34:06.751Z,23.60
2018-06-30T06:36:35.017Z,23.90
2018-06-30T06:39:03.588Z,23.90
2018-06-30T06:41:31.882Z,23.90
2018-06-30T06:44:00.166Z,23.90
2018-06-30T06:46:28.395Z,24.00
2018-06-30T06:48:56.895Z,24.00
2018-06-30T06:51:25.120Z,24.00
2018-06-30T06:53:53.391Z,24.10
2018-06-30T06:56:22.169Z,24.10
2018-06-30T06:58:50.422Z,24.20
2018-06-30T07:01:19.725Z,24.20
2018-06-30T07:03:48.022Z,24.30
2018-06-30T07:06:16.269Z,24.30
2018-06-30T07:08:44.740Z,24.40
2018-06-30T07:11:13.102Z,24.50
2018-06-30T07:13:41.330Z,24.50
2018-06-30T07:16:09.967Z,24.50
2018-06-30T07:18:38.566Z,24.50
2018-06-30T07:21:06.919Z,24.50
2018-06-30T07:23:35.423Z,24.60
2018-06-30T07:26:04.094Z,24.60
2018-06-30T07:28:32.607Z,24.60
2018-06-30T07:31:02.255Z,24.60
2018-06-30T07:33:30.862Z,24.70
2018-06-30T07:35:59.578Z,24.70
2018-06-30T07:38:28.157Z,24.70
2018-06-30T07:40:57.015Z,24.80
2018-06-30T07:43:25.704Z,24.90
2018-06-30T07:45:54.156Z,24.90
2018-06-30T07:48:22.833Z,25.00
2018-06-30T07:50:51.591Z,25.00
2018-06-30T07:53:20.076Z,25.10
2018-06-30T07:55:49.372Z,25.20
2018-06-30T07:58:19.105Z,25.20
2018-06-30T08:00:50.570Z,25.40
2018-06-30T08:03:18.867Z,25.60
2018-06-30T08:05:47.468Z,25.90
2018-06-30T08:08:16.060Z,26.10
2018-06-30T08:10:44.461Z,26.20
2018-06-30T08:13:12.719Z,26.70
2018-06-30T08:15:41.050Z,27.70
2018-06-30T08:18:09.425Z,28.60
2018-06-30T08:20:37.613Z,29.60
2018-06-30T08:23:06.287Z,31.50
2018-06-30T08:28:02.642Z,36.00
2018-06-30T08:30:31.042Z,37.80
2018-06-30T08:32:59.308Z,39.10
2018-06-30T08:35:27.500Z,39.90
2018-06-30T08:37:55.826Z,40.50
2018-06-30T08:40:24.054Z,41.10
2018-06-30T08:42:52.370Z,41.80
2018-06-30T08:45:20.578Z,42.50
2018-06-30T08:47:48.852Z,43.00
2018-06-30T08:50:17.066Z,43.10
2018-06-30T08:52:45.278Z,43.20
2018-06-30T08:55:13.530Z,43.20
2018-06-30T08:57:41.690Z,43.00
2018-06-30T09:00:09.952Z,43.10
2018-06-30T09:02:38.229Z,43.10
2018-06-30T09:05:06.599Z,43.00
2018-06-30T09:07:34.983Z,42.80
2018-06-30T09:10:03.226Z,42.40
2018-06-30T09:12:31.435Z,41.10
2018-06-30T09:14:59.637Z,40.00
2018-06-30T09:17:27.891Z,38.70
2018-06-30T09:19:56.366Z,37.30
2018-06-30T09:22:24.751Z,35.90
2018-06-30T09:24:52.992Z,34.80
2018-06-30T09:27:21.242Z,34.00
2018-06-30T09:29:49.570Z,33.00
2018-06-30T09:32:17.692Z,32.40
2018-06-30T09:34:45.978Z,32.00
2018-06-30T09:37:14.215Z,31.70
2018-06-30T09:39:42.470Z,31.60
2018-06-30T09:42:10.731Z,31.30
2018-06-30T09:44:39.108Z,31.10
2018-06-30T09:47:08.578Z,30.90
2018-06-30T09:49:36.820Z,30.70
2018-06-30T09:52:05.629Z,30.60
2018-06-30T09:54:33.894Z,30.60
2018-06-30T09:57:02.125Z,30.60
2018-06-30T09:59:30.405Z,30.50
2018-06-30T10:01:58.731Z,30.40
2018-06-30T10:04:27.043Z,30.10
2018-06-30T10:06:55.395Z,30.00
2018-06-30T10:09:23.615Z,30.00
2018-06-30T10:11:51.884Z,30.00
2018-06-30T10:14:20.091Z,30.00
2018-06-30T10:16:48.287Z,30.00
2018-06-30T10:19:16.685Z,30.00
2018-06-30T10:21:44.853Z,29.90
2018-06-30T10:24:13.129Z,30.00
2018-06-30T10:26:41.402Z,29.90
2018-06-30T10:29:16.210Z,29.80
2018-06-30T10:31:44.449Z,29.80
2018-06-30T10:34:12.732Z,29.80
2018-06-30T10:36:41.025Z,29.80
2018-06-30T10:39:10.744Z,29.80
2018-06-30T10:41:39.042Z,29.70
2018-06-30T10:44:07.305Z,29.80
2018-06-30T10:46:36.336Z,30.00
2018-06-30T10:49:04.786Z,30.10
2018-06-30T10:51:33.309Z,30.40
2018-06-30T10:54:01.626Z,30.30
2018-06-30T10:56:29.850Z,30.20
2018-06-30T10:58:58.050Z,30.20
2018-06-30T11:01:26.258Z,30.20
2018-06-30T11:03:54.664Z,30.30
2018-06-30T11:06:22.814Z,30.30
2018-06-30T11:08:51.034Z,30.40
2018-06-30T11:11:19.278Z,30.40
2018-06-30T11:13:47.526Z,30.30
2018-06-30T11:16:15.908Z,30.20
2018-06-30T11:18:44.639Z,30.30
2018-06-30T11:21:12.918Z,30.40
2018-06-30T11:23:41.148Z,30.50
2018-06-30T11:26:09.392Z,30.60
2018-06-30T11:28:37.966Z,30.60
2018-06-30T11:31:06.286Z,30.60
2018-06-30T11:33:34.497Z,30.50
2018-06-30T11:36:02.709Z,30.50
2018-06-30T11:38:31.373Z,30.60
2018-06-30T11:40:59.647Z,30.60
2018-06-30T11:43:28.141Z,30.50
2018-06-30T11:45:56.382Z,30.40
2018-06-30T11:48:24.610Z,30.50
2018-06-30T11:50:52.853Z,30.60
2018-06-30T11:53:21.134Z,30.80
2018-06-30T11:55:49.371Z,31.10
2018-06-30T11:58:17.573Z,31.40
2018-06-30T12:00:46.850Z,31.50
2018-06-30T12:03:15.107Z,31.60
2018-06-30T12:05:43.341Z,31.70
2018-06-30T12:08:11.575Z,31.70
2018-06-30T12:10:39.780Z,31.70
2018-06-30T12:13:08.105Z,31.50
2018-06-30T12:15:36.344Z,31.40
2018-06-30T12:18:04.630Z,31.30
2018-06-30T12:20:32.849Z,31.30
2018-06-30T12:23:01.099Z,31.30
2018-06-30T12:25:29.739Z,31.40
2018-06-30T12:27:58.006Z,31.40
2018-06-30T12:30:26.405Z,31.50
2018-06-30T12:32:54.630Z,31.40
2018-06-30T12:35:22.934Z,31.30
2018-06-30T12:37:51.408Z,31.20
2018-06-30T12:40:19.938Z,31.20
2018-06-30T12:42:48.139Z,31.20
2018-06-30T12:45:16.398Z,31.30
2018-06-30T12:47:44.639Z,31.30
2018-06-30T12:50:12.847Z,31.30
2018-06-30T12:52:41.064Z,31.40
2018-06-30T12:55:10.336Z,31.50
2018-06-30T12:57:38.611Z,31.70
2018-06-30T13:00:07.186Z,31.90
2018-06-30T13:02:35.473Z,31.80
2018-06-30T13:05:03.840Z,31.70
2018-06-30T13:07:32.122Z,31.70
2018-06-30T13:10:00.379Z,31.40
2018-06-30T13:12:28.651Z,31.20
2018-06-30T13:14:56.901Z,31.10
2018-06-30T13:17:25.507Z,31.20
2018-06-30T13:22:21.738Z,31.40
2018-06-30T13:24:50.043Z,31.50
2018-06-30T13:27:18.339Z,31.60
2018-06-30T13:29:46.609Z,31.70
2018-06-30T13:32:14.837Z,31.80
2018-06-30T13:34:43.199Z,31.80
2018-06-30T13:37:11.571Z,31.70
2018-06-30T13:39:39.794Z,31.60
2018-06-30T13:42:08.202Z,31.40
2018-06-30T13:44:36.547Z,31.30
2018-06-30T13:47:05.289Z,31.20
2018-06-30T13:49:33.527Z,30.90
2018-06-30T13:52:01.919Z,31.10
2018-06-30T13:54:30.121Z,31.30
2018-06-30T13:56:58.369Z,31.40
2018-06-30T13:59:27.230Z,31.50
2018-06-30T14:01:55.664Z,31.50
2018-06-30T14:04:23.917Z,31.30
2018-06-30T14:06:52.472Z,31.10
2018-06-30T14:09:20.744Z,31.20
2018-06-30T14:11:48.989Z,31.30
2018-06-30T14:14:17.266Z,31.50
2018-06-30T14:16:45.487Z,31.70
2018-06-30T14:19:13.679Z,31.90
2018-06-30T14:21:42.131Z,32.00
2018-06-30T14:24:10.353Z,32.00
2018-06-30T14:26:38.596Z,32.00
2018-06-30T14:29:06.815Z,31.90
2018-06-30T14:31:35.192Z,31.60
2018-06-30T14:34:03.438Z,31.40
2018-06-30T14:36:31.746Z,31.20
2018-06-30T14:38:59.958Z,31.00
2018-06-30T14:41:28.191Z,30.80
2018-06-30T14:43:56.750Z,30.70
2018-06-30T14:46:24.972Z,30.70
2018-06-30T14:48:53.199Z,30.70
2018-06-30T14:51:21.440Z,30.80
2018-06-30T14:53:49.689Z,31.00
2018-06-30T14:56:17.956Z,31.30
2018-06-30T14:58:46.188Z,31.50
2018-06-30T15:01:14.398Z,31.70
2018-06-30T15:03:42.654Z,32.00
2018-06-30T15:06:10.966Z,32.20
2018-06-30T15:08:39.224Z,32.20
2018-06-30T15:11:07.528Z,32.00
2018-06-30T15:13:35.751Z,31.80
2018-06-30T15:16:04.546Z,31.70
2018-06-30T15:18:32.928Z,31.50
2018-06-30T15:21:01.242Z,31.50
2018-06-30T15:23:29.489Z,31.50
2018-06-30T15:25:57.862Z,31.30
2018-06-30T15:28:26.223Z,31.10
2018-06-30T15:30:54.537Z,30.90
2018-06-30T15:33:22.795Z,30.90
2018-06-30T15:35:51.107Z,30.90
2018-06-30T15:38:19.261Z,30.90
2018-06-30T15:40:47.482Z,30.90
2018-06-30T15:45:44.054Z,30.90
2018-06-30T15:48:12.275Z,29.70
2018-06-30T15:50:40.555Z,31.20
2018-06-30T15:53:08.750Z,31.00
2018-06-30T15:55:37.045Z,31.10
2018-06-30T15:58:05.522Z,31.30
2018-06-30T16:00:33.768Z,31.40
2018-06-30T16:03:02.010Z,31.50
2018-06-30T16:05:30.244Z,31.60
2018-06-30T16:07:59.362Z,31.60
2018-06-30T16:10:27.547Z,31.70
2018-06-30T16:12:55.786Z,31.80
2018-06-30T16:15:24.014Z,31.80
2018-06-30T16:17:52.270Z,31.80
2018-06-30T16:20:24.151Z,31.80
2018-06-30T16:22:52.742Z,31.80
2018-06-30T16:25:20.971Z,31.80
2018-06-30T16:27:49.198Z,31.70
2018-06-30T16:30:17.498Z,31.70
2018-06-30T16:32:45.727Z,31.60
2018-06-30T16:35:13.995Z,31.50
2018-06-30T16:37:42.237Z,31.50
2018-06-30T16:40:10.488Z,31.40
2018-06-30T16:42:38.733Z,31.30
2018-06-30T16:45:07.029Z,31.10
2018-06-30T16:47:35.339Z,30.90
2018-06-30T16:50:03.600Z,30.90
2018-06-30T16:52:31.850Z,30.80
2018-06-30T16:55:00.083Z,30.80
2018-06-30T16:57:28.494Z,30.70
2018-06-30T16:59:56.714Z,30.60
2018-06-30T17:04:53.003Z,30.50
2018-06-30T17:07:21.263Z,30.50
2018-06-30T17:09:49.458Z,30.60
2018-06-30T17:12:17.758Z,30.70
2018-06-30T17:14:46.519Z,30.70
2018-06-30T17:17:14.741Z,30.80
2018-06-30T17:19:42.990Z,30.80
2018-06-30T17:22:11.231Z,30.90
2018-06-30T17:24:39.607Z,30.80
2018-06-30T17:27:07.982Z,30.80
2018-06-30T17:29:36.350Z,30.80
2018-06-30T17:32:04.622Z,30.80
2018-06-30T17:34:32.973Z,30.80
2018-06-30T17:37:01.499Z,30.70
2018-06-30T17:39:29.757Z,30.60
2018-06-30T17:41:58.042Z,30.60
2018-06-30T17:44:26.267Z,30.60
2018-06-30T17:46:54.553Z,30.60
2018-06-30T17:49:22.800Z,30.50
2018-06-30T17:51:51.174Z,30.40
2018-06-30T17:54:19.409Z,30.20
2018-06-30T17:56:47.659Z,30.10
2018-06-30T17:59:15.878Z,30.10
2018-06-30T18:01:44.202Z,30.10
2018-06-30T18:04:12.483Z,30.10
2018-06-30T18:06:40.830Z,30.10
2018-06-30T18:09:11.610Z,30.00
2018-06-30T18:11:40.147Z,30.00
2018-06-30T18:14:08.984Z,29.90
2018-06-30T18:16:37.215Z,29.90
2018-06-30T18:19:05.567Z,29.80
2018-06-30T18:21:33.891Z,29.70
2018-06-30T18:24:02.140Z,29.70
2018-06-30T18:26:30.378Z,29.60
2018-06-30T18:28:58.606Z,29.60
2018-06-30T18:31:27.486Z,29.60
2018-06-30T18:33:55.825Z,29.50
2018-06-30T18:36:24.071Z,29.50
2018-06-30T18:38:52.319Z,29.40
2018-06-30T18:41:20.626Z,29.30
2018-06-30T18:43:48.882Z,29.30
2018-06-30T18:46:23.430Z,29.20
2018-06-30T18:48:51.771Z,29.10
2018-06-30T18:51:19.949Z,29.10
2018-06-30T18:53:48.162Z,29.10
2018-06-30T18:56:16.414Z,29.00
2018-06-30T18:58:44.773Z,28.90
2018-06-30T19:01:13.322Z,28.80
2018-06-30T19:03:41.563Z,28.80
2018-06-30T19:06:10.863Z,28.70
2018-06-30T19:08:39.459Z,28.60
2018-06-30T19:11:07.935Z,28.60
2018-06-30T19:13:36.411Z,28.50
2018-06-30T19:16:05.932Z,28.40
2018-06-30T19:18:34.296Z,28.40
2018-06-30T19:21:03.796Z,28.30
2018-06-30T19:23:33.212Z,28.20
2018-06-30T19:26:02.179Z,28.20
2018-06-30T19:28:31.207Z,28.10
2018-06-30T19:31:00.097Z,28.00
2018-06-30T19:33:28.545Z,28.00
2018-06-30T19:35:56.885Z,27.90
2018-06-30T19:38:25.108Z,27.90
2018-06-30T19:40:55.131Z,27.80
2018-06-30T19:43:23.391Z,27.70
2018-06-30T19:45:51.742Z,27.70
2018-06-30T19:48:20.129Z,27.60
2018-06-30T19:50:49.590Z,27.60
2018-06-30T19:53:18.089Z,27.50
2018-06-30T19:55:46.270Z,27.40
2018-06-30T19:58:14.974Z,27.40
2018-06-30T20:00:43.250Z,27.30
2018-06-30T20:03:11.626Z,27.30
2018-06-30T20:05:40.718Z,27.20
2018-06-30T20:08:08.842Z,27.20
2018-06-30T20:10:37.276Z,27.10
2018-06-30T20:13:05.526Z,27.10
2018-06-30T20:15:33.747Z,27.00
2018-06-30T20:18:02.026Z,27.00
2018-06-30T20:20:30.284Z,26.90
2018-06-30T20:22:59.813Z,26.90
2018-06-30T20:25:28.124Z,26.80
2018-06-30T20:27:56.644Z,26.80
2018-06-30T20:30:25.167Z,26.70
2018-06-30T20:32:54.139Z,26.70
2018-06-30T20:35:22.907Z,26.70
2018-06-30T20:37:51.506Z,26.70
2018-06-30T20:40:20.406Z,26.60
2018-06-30T20:42:48.834Z,26.50
2018-06-30T20:45:18.066Z,26.50
2018-06-30T20:50:14.273Z,26.40
2018-06-30T20:52:42.541Z,26.30
2018-06-30T20:55:10.727Z,26.30
2018-06-30T20:57:38.979Z,26.20
2018-06-30T21:00:07.265Z,26.20
2018-06-30T21:05:03.579Z,26.10
2018-06-30T21:07:31.806Z,26.00
2018-06-30T21:10:00.072Z,26.00
2018-06-30T21:12:28.293Z,26.00
2018-06-30T21:14:56.519Z,25.90
2018-06-30T21:19:53.268Z,25.80
2018-06-30T21:22:21.554Z,25.80
2018-06-30T21:24:49.845Z,25.70
2018-06-30T21:27:18.382Z,25.70
2018-06-30T21:29:46.792Z,25.60
2018-06-30T21:32:15.151Z,25.60
2018-06-30T21:34:43.353Z,25.50
2018-06-30T21:37:11.915Z,25.50
2018-06-30T21:39:40.166Z,25.50
2018-06-30T21:42:08.506Z,25.50
2018-06-30T21:44:36.971Z,25.40
2018-06-30T21:47:05.321Z,25.40
2018-06-30T21:49:33.581Z,25.30
2018-06-30T21:52:01.870Z,25.30
2018-06-30T21:54:30.206Z,25.20
2018-06-30T21:56:58.453Z,25.20
2018-06-30T21:59:26.681Z,25.20
2018-06-30T22:01:55.365Z,25.10
2018-06-30T22:04:23.553Z,25.10
2018-06-30T22:06:51.775Z,25.00
2018-06-30T22:09:19.981Z,25.00
2018-06-30T22:11:48.225Z,25.00
2018-06-30T22:14:16.567Z,24.90
2018-06-30T22:16:44.888Z,24.90
2018-06-30T22:19:13.227Z,24.80
2018-06-30T22:21:41.549Z,24.70
2018-06-30T22:24:09.754Z,24.70
2018-06-30T22:26:38.534Z,24.70
2018-06-30T22:29:06.993Z,24.70
2018-06-30T22:31:35.181Z,24.60
2018-06-30T22:34:03.413Z,24.60
2018-06-30T22:38:59.642Z,24.50
2018-06-30T22:41:27.877Z,24.50
2018-06-30T22:43:56.070Z,24.40
2018-06-30T22:46:24.302Z,24.40
2018-06-30T22:48:52.591Z,24.40
2018-06-30T22:51:20.812Z,24.40
2018-06-30T22:53:49.041Z,24.30
2018-06-30T22:56:17.266Z,24.30
2018-06-30T22:58:45.470Z,24.20
2018-06-30T23:01:13.932Z,24.20
2018-06-30T23:03:42.184Z,24.20
2018-06-30T23:06:10.414Z,24.20
2018-06-30T23:08:56.167Z,24.00
2018-06-30T23:11:24.882Z,24.00
2018-06-30T23:13:53.476Z,23.90
2018-06-30T23:16:22.082Z,23.90
2018-06-30T23:18:56.894Z,23.80
2018-06-30T23:21:25.135Z,23.80
2018-06-30T23:23:53.342Z,23.80
2018-06-30T23:26:21.603Z,23.80
2018-06-30T23:28:49.813Z,23.70
2018-06-30T23:31:18.045Z,23.60
2018-06-30T23:33:46.321Z,23.60
2018-06-30T23:36:14.545Z,23.60
2018-06-30T23:38:42.738Z,23.60
2018-06-30T23:41:10.966Z,23.60
2018-06-30T23:43:39.170Z,23.60
2018-06-30T23:46:07.469Z,23.60
2018-06-30T23:48:35.695Z,23.50
2018-06-30T23:51:03.914Z,23.50
2018-06-30T23:53:32.081Z,23.50
2018-06-30T23:56:00.316Z,23.40
2018-06-30T23:58:28.509Z,23.40
